Time;durP1;ratioP1;P1;durP2;ratioP2;P2;SDS_P1;SDS_P2;PMS_P1;PMS_P2;Temp;Humidity;BMP_temperature;BMP_pressure;BME280_temperature;BME280_humidity;BME280_pressure;Samples;Min_cycle;Max_cycle;Signal;HPM_P1;HPM_P2
2023/01/14 00:01:54;;;;;;;10.37;3.13;;;;;;;9.18;47.29;100234.50;10241712;28;20236;-36
2023/01/14 00:06:55;;;;;;;11.57;3.70;;;;;;;9.18;47.61;100253.19;10242310;28;20692;-36
2023/01/14 00:11:57;;;;;;;7.80;3.07;;;;;;;9.63;46.76;100213.66;10238527;28;20240;-36
2023/01/14 00:17:00;;;;;;;8.47;3.87;;;;;;;9.47;46.79;100235.03;10250609;28;20320;-36
2023/01/14 00:22:02;;;;;;;8.37;3.37;;;;;;;10.12;46.41;100221.66;10242515;28;20323;-36
2023/01/14 00:27:04;;;;;;;10.93;3.37;;;;;;;9.15;47.47;100253.53;10251497;28;20341;-36
2023/01/14 00:32:05;;;;;;;12.57;3.77;;;;;;;9.76;47.03;100229.19;10248653;28;20317;-36
2023/01/14 00:37:07;;;;;;;9.37;3.60;;;;;;;9.64;46.80;100193.97;10248848;28;20592;-36
2023/01/14 00:42:09;;;;;;;7.93;3.40;;;;;;;7.92;48.86;100183.63;10244971;28;20609;-36
2023/01/14 00:47:10;;;;;;;9.00;3.23;;;;;;;9.92;47.10;100197.13;10249539;28;20908;-36
2023/01/14 00:52:12;;;;;;;9.73;3.47;;;;;;;10.30;46.53;100188.50;10239096;28;20766;-36
2023/01/14 00:57:15;;;;;;;7.90;3.30;;;;;;;8.94;47.48;100234.44;10250166;28;20260;-36
2023/01/14 01:02:17;;;;;;;9.63;3.23;;;;;;;10.30;45.90;100192.00;10246968;28;20608;-37
2023/01/14 01:07:19;;;;;;;9.40;3.17;;;;;;;9.24;46.45;100211.63;10249967;28;20558;-37
2023/01/14 01:12:21;;;;;;;6.73;3.03;;;;;;;10.16;46.80;100187.38;10243355;28;20243;-37
2023/01/14 01:17:22;;;;;;;6.43;3.50;;;;;;;10.39;46.90;100175.91;10237433;28;20456;-36
2023/01/14 01:22:24;;;;;;;6.73;2.73;;;;;;;8.06;49.40;100152.88;10250470;28;20663;-37
2023/01/14 01:27:26;;;;;;;6.57;3.00;;;;;;;9.82;47.17;100190.25;10244319;28;20476;-36
2023/01/14 01:32:27;;;;;;;8.87;3.70;;;;;;;8.10;50.35;100163.06;10244782;28;20243;-37
2023/01/14 01:37:29;;;;;;;9.13;4.23;;;;;;;9.91;47.99;100159.88;10260219;28;20227;-37
2023/01/14 01:42:33;;;;;;;7.43;3.93;;;;;;;8.14;50.48;100141.44;10247058;28;20238;-36
2023/01/14 01:47:35;;;;;;;6.93;3.33;;;;;;;9.08;49.60;100200.94;10239849;28;20270;-37
2023/01/14 01:52:37;;;;;;;4.77;3.40;;;;;;;9.28;48.84;100212.13;10242166;28;20239;-37
2023/01/14 01:57:40;;;;;;;7.53;3.27;;;;;;;8.10;51.09;100136.41;10240255;28;20713;-36
2023/01/14 02:02:42;;;;;;;6.40;3.30;;;;;;;9.04;49.79;100200.44;10242880;28;20248;-37
2023/01/14 02:07:44;;;;;;;9.43;3.53;;;;;;;9.04;48.35;100187.06;10248362;28;20246;-36
2023/01/14 02:13:00;;;;;;;7.73;3.33;;;;;;;7.59;51.15;100098.13;10249119;28;20618;-37
2023/01/14 02:18:45;;;;;;;5.53;2.80;;;;;;;9.11;48.71;100217.47;10247313;28;20235;-37
2023/01/14 02:23:52;;;;;;;7.27;3.40;;;;;;;9.02;49.40;100210.44;10231009;28;20235;-37
2023/01/14 02:29:17;;;;;;;7.60;3.20;;;;;;;8.55;51.69;100144.25;10245314;28;20293;-36
2023/01/14 02:34:30;;;;;;;6.23;3.57;;;;;;;9.76;48.62;100144.50;10245214;28;20238;-36
2023/01/14 02:39:40;;;;;;;6.53;2.80;;;;;;;9.25;49.79;100177.75;10248793;28;20736;-36
2023/01/14 02:44:52;;;;;;;4.70;2.73;;;;;;;10.22;47.26;100124.34;10240350;28;20241;-37
2023/01/14 02:49:57;;;;;;;8.70;3.73;;;;;;;9.48;48.46;100160.06;10239548;28;20415;-37
2023/01/14 02:55:02;;;;;;;7.07;2.63;;;;;;;10.38;47.05;100137.66;10237619;28;20249;-36
2023/01/14 03:00:20;;;;;;;5.63;3.00;;;;;;;9.07;48.35;100144.03;10233640;28;20628;-37
2023/01/14 03:05:53;;;;;;;5.23;2.23;;;;;;;7.60;51.95;99968.47;10241636;28;20239;-36
2023/01/14 03:11:00;;;;;;;5.43;2.40;;;;;;;7.03;52.90;99898.00;10244330;28;20235;-36
2023/01/14 03:16:31;;;;;;;6.10;2.70;;;;;;;10.44;46.13;100051.31;10238498;28;20235;-36
2023/01/14 03:21:41;;;;;;;7.67;2.50;;;;;;;9.49;47.61;100127.00;10243039;28;20239;-36
2023/01/14 03:26:47;;;;;;;5.43;2.60;;;;;;;9.53;47.93;100139.03;10243311;28;20614;-37
2023/01/14 03:31:58;;;;;;;9.07;2.90;;;;;;;10.32;47.11;100091.00;10250898;28;20330;-37
2023/01/14 03:37:04;;;;;;;7.40;2.67;;;;;;;10.90;45.82;100050.53;10243852;28;20230;-36
2023/01/14 03:42:19;;;;;;;4.90;2.40;;;;;;;10.37;46.52;100062.91;10240942;28;20236;-37
2023/01/14 03:47:22;;;;;;;5.00;2.80;;;;;;;9.39;49.14;100076.44;10233059;28;20330;-37
2023/01/14 03:52:42;;;;;;;4.50;2.77;;;;;;;8.58;49.80;100021.22;10215796;28;20233;-36
2023/01/14 03:58:01;;;;;;;5.60;2.60;;;;;;;10.08;47.27;100027.78;10207928;28;20643;-37
2023/01/14 04:03:08;;;;;;;8.17;3.00;;;;;;;9.98;46.86;100023.69;10220192;28;20262;-36
2023/01/14 04:08:10;;;;;;;6.10;2.40;;;;;;;10.54;46.87;100018.97;10238466;28;20238;-36
2023/01/14 04:18:35;;;;;;;8.77;3.00;;;;;;;9.33;49.04;100063.78;10228078;28;20251;-36
2023/01/14 04:23:36;;;;;;;9.00;2.83;;;;;;;10.43;47.47;100006.84;10213632;28;20592;-37
2023/01/14 04:28:38;;;;;;;10.60;3.53;;;;;;;8.26;49.84;99966.84;10208247;28;20274;-36
2023/01/14 04:33:40;;;;;;;5.30;2.90;;;;;;;9.48;48.62;100061.22;10210261;28;20247;-36
2023/01/14 04:38:42;;;;;;;7.50;3.00;;;;;;;7.24;52.39;99788.47;10208278;28;20746;-36
2023/01/14 04:43:43;;;;;;;6.67;3.10;;;;;;;9.98;48.00;99989.75;10207897;28;20236;-36
2023/01/14 04:48:45;;;;;;;10.53;4.10;;;;;;;9.42;49.34;100043.22;10225832;28;20239;-36
2023/01/14 04:53:47;;;;;;;11.97;3.70;;;;;;;9.63;48.28;100001.75;10250336;28;20238;-36
2023/01/14 04:58:48;;;;;;;8.37;3.07;;;;;;;10.59;47.31;99920.25;10242256;28;20243;-37
2023/01/14 05:03:51;;;;;;;7.50;4.07;;;;;;;7.92;52.64;99885.19;10248798;28;20342;-36
2023/01/14 05:08:54;;;;;;;8.73;2.60;;;;;;;7.88;52.99;99889.16;10252215;28;20753;-36
2023/01/14 05:13:55;;;;;;;14.73;3.83;;;;;;;8.36;52.55;99940.84;10245265;28;20237;-36
2023/01/14 05:18:57;;;;;;;10.80;3.50;;;;;;;8.03;52.52;99927.50;10239301;28;20231;-36
2023/01/14 05:23:59;;;;;;;8.33;3.60;;;;;;;8.61;52.60;99914.19;10245268;28;20243;-36
2023/01/14 05:29:01;;;;;;;13.77;3.83;;;;;;;8.91;51.40;99917.16;10251037;28;20711;-35
2023/01/14 05:34:03;;;;;;;11.77;3.20;;;;;;;7.57;53.65;99857.78;10243814;28;20245;-36
2023/01/14 05:39:05;;;;;;;9.93;3.20;;;;;;;7.47;52.70;99843.78;10247519;28;20240;-36
2023/01/14 05:49:28;;;;;;;11.60;4.10;;;;;;;9.67;49.51;99834.72;10245552;28;20732;-36
2023/01/14 05:54:30;;;;;;;9.63;3.53;;;;;;;9.36;50.74;99838.25;10247050;28;20243;-36
2023/01/14 05:59:31;;;;;;;8.63;3.60;;;;;;;6.88;54.17;99751.44;10243288;28;20231;-36
2023/01/14 06:09:53;;;;;;;6.93;3.40;;;;;;;8.91;50.97;99840.63;10247249;28;20243;-36
2023/01/14 06:14:55;;;;;;;11.50;4.77;;;;;;;7.52;52.80;99860.91;10243840;28;20231;-36
2023/01/14 06:19:57;;;;;;;11.43;3.40;;;;;;;8.75;51.09;99860.13;10244750;28;20250;-36
2023/01/14 06:24:58;;;;;;;10.30;3.60;;;;;;;9.19;49.82;99824.97;10245119;28;20230;-36
2023/01/14 06:30:00;;;;;;;10.37;4.07;;;;;;;9.82;49.75;99786.69;10244076;28;20237;-36
2023/01/14 06:35:02;;;;;;;11.93;3.50;;;;;;;9.26;50.75;99843.78;10234609;28;20227;-36
2023/01/14 06:40:04;;;;;;;9.17;3.40;;;;;;;8.79;50.95;99853.47;10242204;28;20237;-37
2023/01/14 06:45:10;;;;;;;4.67;2.43;;;;;;;7.32;53.24;99753.03;10246915;28;20235;-37
2023/01/14 06:50:13;;;;;;;9.00;3.13;;;;;;;8.29;52.34;99828.72;10242207;28;20239;-37
2023/01/14 06:55:16;;;;;;;8.73;3.23;;;;;;;6.93;52.92;99722.50;10247533;28;20238;-37
2023/01/14 07:00:18;;;;;;;13.20;3.50;;;;;;;8.80;50.92;99819.59;10234639;28;20227;-37
2023/01/14 07:05:20;;;;;;;7.60;3.03;;;;;;;7.55;52.81;99778.03;10245499;28;20235;-37
2023/01/14 07:10:22;;;;;;;11.50;3.80;;;;;;;10.02;48.78;99773.69;10235453;28;20270;-37
2023/01/14 07:15:23;;;;;;;10.43;4.40;;;;;;;10.01;49.29;99772.03;10239216;28;20978;-37
2023/01/14 07:20:25;;;;;;;15.97;4.27;;;;;;;10.32;48.68;99753.97;10238579;28;20733;-37
2023/01/14 07:25:27;;;;;;;10.43;4.17;;;;;;;10.02;49.11;99762.97;10253697;28;20608;-37
2023/01/14 07:30:28;;;;;;;12.07;3.70;;;;;;;9.85;49.25;99848.66;10237903;28;20797;-37
2023/01/14 07:35:30;;;;;;;10.53;3.30;;;;;;;9.83;49.59;99829.28;10252967;28;20231;-37
2023/01/14 07:40:32;;;;;;;11.67;3.60;;;;;;;10.67;48.05;99743.56;10243477;28;20241;-37
2023/01/14 07:45:34;;;;;;;9.47;3.40;;;;;;;9.65;49.86;99810.88;10252059;28;20241;-37
2023/01/14 07:50:36;;;;;;;6.73;3.70;;;;;;;10.18;48.94;99762.84;10248235;28;20296;-37
2023/01/14 07:55:38;;;;;;;7.07;2.80;;;;;;;9.10;50.92;99834.03;10249909;28;20521;-37
2023/01/14 08:00:40;;;;;;;6.73;3.07;;;;;;;9.40;50.15;99820.88;10247788;28;20268;-37
2023/01/14 08:05:41;;;;;;;4.17;2.30;;;;;;;6.58;54.75;99554.22;10235678;28;20241;-37
2023/01/14 08:10:43;;;;;;;7.80;3.07;;;;;;;10.31;50.13;99722.09;10249750;28;20263;-37
2023/01/14 08:15:45;;;;;;;7.90;2.87;;;;;;;10.26;50.05;99741.38;10252346;28;20334;-37
2023/01/14 08:20:47;;;;;;;6.63;3.13;;;;;;;9.65;50.60;99756.59;10248563;28;20235;-37
2023/01/14 08:25:48;;;;;;;8.73;3.30;;;;;;;10.66;49.43;99700.94;10249221;28;20250;-37
2023/01/14 08:30:59;;;;;;;5.17;2.37;;;;;;;9.28;51.85;99798.22;10198337;28;20241;-37
2023/01/14 08:36:12;;;;;;;6.13;2.80;;;;;;;9.91;50.52;99706.28;10249384;28;20241;-37
2023/01/14 08:41:15;;;;;;;7.57;2.77;;;;;;;8.58;52.12;99760.63;10244410;28;20591;-37
2023/01/14 08:46:18;;;;;;;2.47;2.10;;;;;;;7.73;53.78;99652.69;10246617;28;20238;-37
2023/01/14 08:51:20;;;;;;;4.03;2.70;;;;;;;8.96;50.96;99757.34;10247887;28;20750;-37
2023/01/14 08:56:22;;;;;;;11.03;3.73;;;;;;;9.52;50.37;99735.81;10248681;28;20239;-37
2023/01/14 09:01:24;;;;;;;6.77;2.43;;;;;;;10.70;48.85;99668.25;10243018;28;20241;-37
2023/01/14 09:06:27;;;;;;;7.37;2.93;;;;;;;11.10;48.43;99667.06;10243424;28;20239;-37
2023/01/14 09:17:07;;;;;;;6.63;2.60;;;;;;;10.07;50.38;99643.81;10245924;28;20263;-37
2023/01/14 09:22:10;;;;;;;6.13;2.63;;;;;;;9.24;52.11;99724.84;10247573;28;20242;-37
2023/01/14 09:27:12;;;;;;;7.40;3.57;;;;;;;9.35;51.40;99668.34;10242551;28;20725;-37
2023/01/14 09:32:15;;;;;;;7.53;3.13;;;;;;;10.39;51.15;99572.19;10250402;28;20243;-37
2023/01/14 09:37:23;;;;;;;5.63;2.73;;;;;;;11.07;49.42;99571.88;10249598;28;20701;-37
2023/01/14 09:42:28;;;;;;;4.97;2.83;;;;;;;9.98;50.87;99655.59;10247704;28;20245;-38
2023/01/14 09:47:30;;;;;;;6.43;2.53;;;;;;;9.11;53.33;99688.88;10243471;28;20514;-37
2023/01/14 09:52:34;;;;;;;5.53;2.80;;;;;;;8.77;52.97;99687.34;10250041;28;20245;-37
2023/01/14 09:57:48;;;;;;;8.73;2.33;;;;;;;8.79;52.87;99666.69;10241283;28;20660;-37
2023/01/14 10:02:52;;;;;;;3.47;2.80;;;;;;;8.34;52.52;99633.56;10232293;28;20247;-37
2023/01/14 10:08:00;;;;;;;5.37;2.27;;;;;;;9.51;50.29;99630.78;10238145;28;20237;-37
2023/01/14 10:13:11;;;;;;;6.43;2.63;;;;;;;10.33;49.22;99572.97;10246133;28;20693;-37
2023/01/14 10:18:19;;;;;;;6.53;3.17;;;;;;;11.26;48.20;99554.31;10241994;28;20620;-37
2023/01/14 10:23:24;;;;;;;5.70;2.43;;;;;;;11.32;48.83;99547.34;10250892;28;20700;-37
2023/01/14 10:28:29;;;;;;;4.40;2.23;;;;;;;9.81;50.38;99603.31;10242035;28;20226;-36
2023/01/14 10:33:31;;;;;;;5.57;2.47;;;;;;;10.06;49.62;99574.47;10246204;28;20689;-37
2023/01/14 10:38:35;;;;;;;5.67;3.00;;;;;;;9.91;51.08;99594.03;10241246;28;20780;-38
2023/01/14 10:43:43;;;;;;;4.23;3.00;;;;;;;11.73;48.15;99504.56;10242767;28;20246;-38
2023/01/14 10:49:02;;;;;;;5.87;1.80;;;;;;;10.74;49.51;99515.34;10243074;28;20877;-37
2023/01/14 10:54:18;;;;;;;4.87;3.13;;;;;;;11.97;47.25;99494.34;10247708;28;20244;-38
2023/01/14 10:59:52;;;;;;;3.63;2.33;;;;;;;9.63;50.84;99567.06;10237752;28;20273;-37
2023/01/14 11:06:19;;;;;;;2.50;2.30;;;;;;;7.12;57.77;99436.69;10578805;27;20403;-60
2023/01/14 11:11:24;;;;;;;3.40;2.37;;;;;;;7.30;58.01;99435.63;10428023;28;20282;-61
2023/01/14 11:16:31;;;;;;;2.47;2.00;;;;;;;6.57;58.42;99371.75;10414533;28;20318;-60
2023/01/14 11:21:41;;;;;;;5.70;2.93;;;;;;;7.27;56.99;99415.50;10414144;28;20726;-60
2023/01/14 11:26:42;;;;;;;3.87;2.63;;;;;;;7.01;58.02;99378.50;10421467;28;20228;-61
2023/01/14 11:31:47;;;;;;;4.07;2.73;;;;;;;8.23;55.78;99394.03;10419880;28;20974;-61
2023/01/14 11:36:49;;;;;;;3.33;1.80;;;;;;;6.43;58.14;99311.28;10415608;28;20303;-62
2023/01/14 11:41:50;;;;;;;2.27;2.07;;;;;;;6.99;57.22;99356.56;10419448;28;20237;-59
2023/01/14 11:47:14;;;;;;;3.73;2.30;;;;;;;7.24;56.47;99337.84;10418099;28;20785;-60
2023/01/14 11:52:18;;;;;;;2.93;1.90;;;;;;;7.82;56.25;99365.00;10432692;28;20644;-59
2023/01/14 11:57:22;;;;;;;3.43;2.50;;;;;;;8.63;53.97;99310.16;10459047;28;20811;-59
2023/01/14 12:02:28;;;;;;;1.87;1.77;;;;;;;8.64;54.54;99332.31;10463396;28;20228;-60
2023/01/14 12:07:36;;;;;;;4.13;2.03;;;;;;;7.61;55.22;99342.50;10468163;28;20882;-60
2023/01/14 12:18:36;;;;;;;3.10;2.80;;;;;;;8.06;53.81;99337.38;10438811;28;20223;-60
2023/01/14 12:23:51;;;;;;;2.33;2.13;;;;;;;9.91;51.90;99246.56;10438041;28;20236;-62
2023/01/14 12:28:59;;;;;;;3.17;2.33;;;;;;;9.32;52.73;99262.84;10438952;28;20239;-63
2023/01/14 12:34:21;;;;;;;4.67;2.50;;;;;;;10.33;50.92;99241.31;10430465;28;20603;-66
2023/01/14 12:50:19;;;;;;;1.93;1.83;;;;;;;9.97;50.84;99215.56;10442084;28;20270;-66
2023/01/14 12:55:34;;;;;;;2.43;2.23;;;;;;;8.98;51.55;99245.63;10440490;28;20236;-64
2023/01/14 13:00:37;;;;;;;2.63;1.90;;;;;;;9.53;51.05;99216.59;10438706;28;20259;-62
2023/01/14 13:05:42;;;;;;;3.50;2.10;;;;;;;8.84;51.91;99301.44;10434658;28;20233;-63
2023/01/14 13:10:45;;;;;;;2.40;2.20;;;;;;;10.22;50.17;99194.53;10432112;28;20262;-62
2023/01/14 13:16:23;;;;;;;2.93;2.30;;;;;;;9.13;51.65;99288.25;10436655;28;20306;-62
2023/01/14 13:22:20;;;;;;;4.63;2.30;;;;;;;9.81;50.36;99235.34;10439436;28;20239;-63
2023/01/14 13:27:41;;;;;;;2.87;1.93;;;;;;;10.02;50.58;99210.44;10386322;28;20613;-63
2023/01/14 13:33:01;;;;;;;4.30;2.20;;;;;;;9.30;51.28;99254.16;10431960;28;20250;-63
2023/01/14 13:38:19;;;;;;;2.60;2.40;;;;;;;9.76;49.88;99195.84;10432276;28;20262;-63
2023/01/14 13:43:25;;;;;;;3.00;2.00;;;;;;;9.55;49.80;99204.72;10436900;28;20246;-64
2023/01/14 13:48:35;;;;;;;2.80;2.37;;;;;;;10.07;49.79;99183.13;10440638;28;20243;-64
2023/01/14 13:53:37;;;;;;;4.20;2.03;;;;;;;9.95;50.46;99182.84;10436665;28;20235;-61
2023/01/14 13:58:50;;;;;;;3.30;2.00;;;;;;;8.57;51.56;99198.06;10434034;28;20232;-62
2023/01/14 14:04:03;;;;;;;2.57;2.37;;;;;;;9.56;50.73;99149.44;10434671;28;20223;-64
2023/01/14 14:09:21;;;;;;;3.10;2.00;;;;;;;9.69;51.34;99144.22;10436784;28;20227;-63
2023/01/14 14:14:31;;;;;;;2.73;2.40;;;;;;;10.35;50.35;99105.56;10431769;28;20615;-63
2023/01/14 14:19:47;;;;;;;4.60;2.37;;;;;;;10.21;50.69;99083.28;10427400;28;20240;-63
2023/01/14 14:24:56;;;;;;;3.00;2.70;;;;;;;10.12;50.58;99085.31;10431108;28;20231;-63
2023/01/14 14:30:06;;;;;;;3.80;2.70;;;;;;;10.42;49.08;99106.41;10436730;28;20232;-63
2023/01/14 14:35:42;;;;;;;2.90;2.20;;;;;;;10.40;49.19;99121.00;10430526;28;20594;-69
2023/01/14 14:40:44;;;;;;;3.13;2.83;;;;;;;9.96;50.51;99153.25;10434546;28;20243;-65
2023/01/14 14:45:59;;;;;;;5.67;2.70;;;;;;;10.81;49.23;99117.47;10437372;28;21049;-66
2023/01/14 14:51:23;;;;;;;3.67;2.20;;;;;;;9.87;50.67;99167.81;10392277;28;20224;-58
2023/01/14 14:56:29;;;;;;;4.07;2.27;;;;;;;9.55;51.41;99187.84;10388756;28;20228;-62
2023/01/14 15:01:35;;;;;;;2.70;2.27;;;;;;;10.03;50.82;99094.50;10394752;28;20239;-62
2023/01/14 15:06:37;;;;;;;2.97;2.77;;;;;;;8.29;53.44;99111.56;10391971;28;20850;-62
2023/01/14 15:11:46;;;;;;;4.50;2.90;;;;;;;10.52;50.82;99069.38;10394334;28;20594;-63
2023/01/14 15:16:52;;;;;;;3.87;2.70;;;;;;;10.15;51.26;99036.75;10381811;28;20235;-63
2023/01/14 15:22:00;;;;;;;4.33;2.67;;;;;;;9.10;53.30;99101.81;10381452;28;20255;-63
2023/01/14 15:27:04;;;;;;;3.47;2.50;;;;;;;8.82;54.83;99115.88;10384344;28;20599;-62
2023/01/14 15:32:25;;;;;;;2.50;1.97;;;;;;;8.74;55.22;99075.97;10383200;28;20237;-59
2023/01/14 15:37:28;;;;;;;3.63;2.70;;;;;;;9.93;52.11;98960.41;10384851;28;20233;-63
2023/01/14 15:42:30;;;;;;;3.20;2.67;;;;;;;9.54;53.11;98975.22;10383359;28;20604;-63
2023/01/14 15:47:33;;;;;;;5.57;2.60;;;;;;;9.42;53.44;98990.16;10389446;28;20305;-63
2023/01/14 15:52:36;;;;;;;4.87;2.60;;;;;;;9.71;52.59;98973.03;10397541;28;20233;-63
2023/01/14 15:57:43;;;;;;;5.53;2.60;;;;;;;9.33;52.19;99005.47;10393366;28;20236;-65
2023/01/14 16:02:45;;;;;;;3.20;2.30;;;;;;;9.76;50.99;98954.56;10397232;28;20578;-63
2023/01/14 16:07:47;;;;;;;2.47;2.37;;;;;;;7.52;53.55;98934.34;10389986;28;20311;-62
2023/01/14 16:12:49;;;;;;;3.33;2.33;;;;;;;8.04;53.64;98998.31;10398342;28;20235;-62
2023/01/14 16:18:01;;;;;;;2.90;2.60;;;;;;;9.13;52.93;98967.97;10389643;28;20235;-60
2023/01/14 16:23:03;;;;;;;3.27;2.00;;;;;;;7.81;53.96;98987.75;10397380;28;20240;-63
2023/01/14 16:28:05;;;;;;;3.33;2.50;;;;;;;8.91;53.25;98933.34;10394277;28;20225;-62
2023/01/14 16:33:09;;;;;;;18.57;9.17;;;;;;;8.16;54.88;98996.00;10396198;28;20239;-62
2023/01/14 16:38:11;;;;;;;5.57;2.90;;;;;;;9.59;52.72;98890.78;10392342;28;20237;-64
2023/01/14 16:43:13;;;;;;;2.53;2.10;;;;;;;8.01;55.20;98975.53;10394467;28;20229;-63
2023/01/14 16:48:15;;;;;;;2.10;2.00;;;;;;;8.53;55.63;98962.13;10397660;28;20319;-64
2023/01/14 16:53:17;;;;;;;2.70;2.03;;;;;;;7.79;55.93;98949.81;10397495;28;20234;-62
2023/01/14 16:58:18;;;;;;;4.30;2.50;;;;;;;8.69;55.33;98899.69;10391876;28;20737;-64
2023/01/14 17:03:22;;;;;;;3.83;2.37;;;;;;;7.88;57.55;98925.59;10396376;28;20228;-62
2023/01/14 17:08:24;;;;;;;4.30;2.27;;;;;;;7.30;58.76;98893.50;10386301;28;20679;-63
2023/01/14 17:13:25;;;;;;;3.47;1.90;;;;;;;6.69;59.98;98829.00;10394522;28;20236;-65
2023/01/14 17:18:27;;;;;;;1.90;1.80;;;;;;;7.63;59.41;98914.41;10386629;28;20749;-61
2023/01/14 17:23:29;;;;;;;3.30;2.50;;;;;;;7.91;59.27;98933.22;10395959;28;20244;-64
2023/01/14 17:28:30;;;;;;;2.43;2.07;;;;;;;8.19;59.98;98865.03;10391840;28;20236;-64
2023/01/14 17:33:32;;;;;;;4.30;2.03;;;;;;;6.87;59.94;98828.66;10395456;28;20320;-64
2023/01/14 17:38:34;;;;;;;2.90;2.30;;;;;;;8.40;58.50;98832.19;10384895;28;20240;-63
2023/01/14 17:43:36;;;;;;;1.93;1.83;;;;;;;7.49;60.00;98859.34;10395519;28;20236;-63
2023/01/14 17:48:37;;;;;;;2.43;2.20;;;;;;;9.48;57.08;98771.16;10398277;28;20244;-63
2023/01/14 17:53:39;;;;;;;2.40;2.20;;;;;;;8.19;58.36;98843.72;10391319;28;20640;-64
2023/01/14 17:58:41;;;;;;;2.67;2.57;;;;;;;8.13;59.28;98855.13;10386852;28;20239;-62
2023/01/14 18:03:50;;;;;;;3.67;2.00;;;;;;;8.74;57.31;98810.06;10392900;28;20236;-63
2023/01/14 18:08:55;;;;;;;2.50;2.30;;;;;;;8.99;57.67;98793.59;10394525;28;20650;-62
2023/01/14 18:13:56;;;;;;;2.20;2.00;;;;;;;9.45;56.93;98765.41;10396215;28;20257;-63
2023/01/14 18:19:00;;;;;;;2.77;2.03;;;;;;;8.85;57.44;98777.50;10391973;28;20286;-64
2023/01/14 18:24:02;;;;;;;2.50;1.80;;;;;;;7.57;59.05;98791.84;10410473;22;20327;-37
2023/01/14 18:29:04;;;;;;;2.10;1.90;;;;;;;9.12;57.88;98796.31;10394551;28;20236;-36
2023/01/14 18:34:09;;;;;;;2.73;2.03;;;;;;;8.40;59.36;98843.66;10393855;28;20235;-37
2023/01/14 18:39:14;;;;;;;2.37;2.17;;;;;;;8.79;58.47;98780.97;10391610;28;20607;-37
2023/01/14 18:44:16;;;;;;;2.90;2.30;;;;;;;9.15;58.02;98777.25;10393842;28;20313;-37
2023/01/14 18:49:21;;;;;;;2.80;2.40;;;;;;;9.14;58.76;98791.59;10391193;28;20323;-37
2023/01/14 18:54:23;;;;;;;5.83;2.47;;;;;;;9.54;57.01;98786.41;10392033;28;20267;-37
2023/01/14 18:59:25;;;;;;;1.83;1.73;;;;;;;10.09;56.32;98786.31;10390690;28;20228;-37
2023/01/14 19:04:26;;;;;;;2.00;1.90;;;;;;;7.99;59.50;98791.06;10394825;28;20224;-38
2023/01/14 19:09:29;;;;;;;2.33;2.10;;;;;;;9.82;57.11;98781.91;10400143;28;20232;-38
2023/01/14 19:14:38;;;;;;;2.00;1.90;;;;;;;8.98;57.90;98790.13;10389776;28;20232;-38
2023/01/14 19:19:40;;;;;;;2.30;1.93;;;;;;;9.87;57.03;98783.00;10387498;28;20240;-38
2023/01/14 19:24:42;;;;;;;1.80;1.70;;;;;;;10.01;56.74;98778.47;10395270;28;20228;-37
2023/01/14 19:29:44;;;;;;;2.53;1.83;;;;;;;8.89;58.19;98764.59;10392892;28;20248;-38
2023/01/14 19:34:46;;;;;;;2.57;2.00;;;;;;;10.00;55.99;98784.84;10403818;28;20240;-38
2023/01/14 19:39:47;;;;;;;2.30;2.10;;;;;;;10.17;56.77;98765.72;10403035;28;20240;-38
2023/01/14 19:44:49;;;;;;;1.87;1.70;;;;;;;8.60;58.95;98790.47;10406718;28;20234;-38
2023/01/14 19:49:51;;;;;;;2.03;1.93;;;;;;;10.42;56.52;98781.97;10393261;28;20272;-38
2023/01/14 19:54:53;;;;;;;1.80;1.70;;;;;;;10.02;56.45;98766.75;10408159;28;20225;-38
2023/01/14 19:59:55;;;;;;;3.50;2.60;;;;;;;8.90;57.71;98747.59;10396272;28;20318;-38
2023/01/14 20:04:56;;;;;;;2.27;2.17;;;;;;;8.85;58.56;98734.00;10396070;28;20224;-38
2023/01/14 20:09:58;;;;;;;2.20;1.93;;;;;;;10.62;56.17;98795.31;10401151;28;20239;-38
2023/01/14 20:15:00;;;;;;;2.27;1.93;;;;;;;10.73;57.21;98783.97;10402195;28;20606;-38
2023/01/14 20:20:02;;;;;;;2.07;1.97;;;;;;;10.41;56.74;98770.44;10400971;28;20667;-38
2023/01/14 20:25:04;;;;;;;2.77;1.70;;;;;;;10.61;56.08;98797.13;10406608;28;20228;-38
2023/01/14 20:30:07;;;;;;;2.33;2.10;;;;;;;10.44;56.98;98764.66;10400556;28;20240;-38
2023/01/14 20:35:09;;;;;;;2.37;1.87;;;;;;;9.91;57.47;98762.84;10398366;28;20233;-38
2023/01/14 20:40:11;;;;;;;2.53;2.33;;;;;;;9.86;58.50;98743.94;10396861;28;20228;-38
2023/01/14 20:45:14;;;;;;;1.97;1.60;;;;;;;9.32;59.44;98760.88;10396453;28;20240;-38
2023/01/14 20:50:15;;;;;;;3.73;2.00;;;;;;;10.64;57.28;98759.28;10402679;28;20271;-38
2023/01/14 20:55:17;;;;;;;1.93;1.83;;;;;;;9.58;58.99;98714.69;10400491;28;20686;-38
2023/01/14 21:00:19;;;;;;;2.20;2.00;;;;;;;10.38;57.54;98737.94;10399405;28;20233;-38
2023/01/14 21:05:21;;;;;;;2.43;1.90;;;;;;;10.49;57.66;98753.34;10393338;28;20229;-38
2023/01/14 21:10:22;;;;;;;2.87;2.67;;;;;;;9.02;59.10;98699.81;10387747;28;20243;-38
2023/01/14 21:26:05;;;;;;;4.33;2.03;;;;;;;10.38;57.44;98745.94;10397517;28;20694;-38
2023/01/14 21:31:06;;;;;;;2.50;2.13;;;;;;;10.43;57.83;98711.41;10404269;28;20229;-38
2023/01/14 21:36:10;;;;;;;2.20;2.00;;;;;;;10.89;57.38;98734.53;10390950;28;20614;-38
2023/01/14 21:46:32;;;;;;;1.70;1.60;;;;;;;9.38;60.43;98650.59;10397393;28;20236;-38
2023/01/14 21:51:34;;;;;;;2.57;2.37;;;;;;;9.27;60.59;98659.22;10394806;28;20315;-38
2023/01/14 21:56:36;;;;;;;2.10;2.00;;;;;;;10.74;58.30;98699.97;10399048;28;20347;-38
2023/01/14 22:01:37;;;;;;;2.07;1.97;;;;;;;11.00;57.71;98696.41;10394921;28;20646;-38
2023/01/14 22:06:39;;;;;;;2.97;2.73;;;;;;;10.18;58.92;98649.75;10398472;28;20279;-38
2023/01/14 22:11:41;;;;;;;2.33;2.13;;;;;;;10.13;59.46;98643.16;10394152;28;20603;-38
2023/01/14 22:16:42;;;;;;;1.67;1.60;;;;;;;8.77;60.37;98606.94;10390055;28;20229;-38
2023/01/14 22:21:44;;;;;;;2.17;1.97;;;;;;;9.46;61.17;98615.69;10392353;28;20836;-38
2023/01/14 22:26:46;;;;;;;2.23;1.80;;;;;;;9.39;60.46;98615.69;10389597;28;20240;-38
2023/01/14 22:31:48;;;;;;;1.80;1.70;;;;;;;10.48;59.07;98634.84;10392314;28;20239;-38
2023/01/14 22:36:51;;;;;;;1.80;1.70;;;;;;;10.85;57.94;98643.16;10384821;28;20232;-38
2023/01/14 22:41:53;;;;;;;2.37;2.17;;;;;;;10.42;58.81;98616.16;10394721;28;20522;-38
2023/01/14 22:46:55;;;;;;;2.03;1.80;;;;;;;11.18;58.36;98649.34;10400360;28;20379;-38
2023/01/14 22:51:57;;;;;;;1.73;1.63;;;;;;;10.35;58.29;98597.44;10384706;28;20233;-38
2023/01/14 22:56:58;;;;;;;2.00;1.90;;;;;;;10.59;58.91;98622.66;10391838;28;20232;-38
2023/01/14 23:02:00;;;;;;;1.70;1.60;;;;;;;8.91;61.21;98538.47;10397070;28;20650;-38
2023/01/14 23:07:03;;;;;;;1.60;1.50;;;;;;;10.07;60.02;98574.53;10395602;28;20236;-38
2023/01/14 23:12:11;;;;;;;1.90;1.73;;;;;;;9.58;59.90;98541.09;10396294;28;20236;-38
2023/01/14 23:17:28;;;;;;;1.93;1.83;;;;;;;10.11;58.92;98554.34;10393013;28;20762;-38
2023/01/14 23:27:54;;;;;;;3.03;1.70;;;;;;;11.27;57.05;98589.09;10400655;28;20247;-38
2023/01/14 23:32:56;;;;;;;1.60;1.50;;;;;;;10.77;57.72;98554.28;10396434;28;20233;-38
2023/01/14 23:37:58;;;;;;;1.90;1.80;;;;;;;11.52;56.46;98589.09;10395473;28;20256;-38
2023/01/14 23:43:00;;;;;;;2.03;1.93;;;;;;;10.54;57.83;98526.16;10389913;28;20319;-38
2023/01/14 23:48:05;;;;;;;1.63;1.53;;;;;;;11.24;56.71;98514.59;10393383;28;20762;-38
2023/01/14 23:53:06;;;;;;;2.10;1.90;;;;;;;10.87;57.34;98496.56;10386893;28;20256;-38
2023/01/14 23:58:08;;;;;;;2.40;2.20;;;;;;;10.58;57.76;98471.22;10395503;28;20237;-38
